sensor_id;sensor_type;location;lat;lon;timestamp;temperature;humidity
69595;DHT22;56800;52.142;5.364;2023-04-03T00:02:01;5.00;65.10
69595;DHT22;56800;52.142;5.364;2023-04-03T00:04:28;5.00;65.10
69595;DHT22;56800;52.142;5.364;2023-04-03T00:06:54;4.90;65.20
69595;DHT22;56800;52.142;5.364;2023-04-03T00:09:21;4.90;65.30
69595;DHT22;56800;52.142;5.364;2023-04-03T00:11:48;4.90;65.40
69595;DHT22;56800;52.142;5.364;2023-04-03T00:14:14;4.90;65.40
69595;DHT22;56800;52.142;5.364;2023-04-03T00:16:41;4.80;65.40
69595;DHT22;56800;52.142;5.364;2023-04-03T00:19:08;4.80;65.40
69595;DHT22;56800;52.142;5.364;2023-04-03T00:21:38;4.80;65.40
69595;DHT22;56800;52.142;5.364;2023-04-03T00:24:05;4.80;65.40
69595;DHT22;56800;52.142;5.364;2023-04-03T00:26:32;4.70;65.40
69595;DHT22;56800;52.142;5.364;2023-04-03T00:28:58;4.70;65.40
69595;DHT22;56800;52.142;5.364;2023-04-03T00:31:25;4.70;65.40
69595;DHT22;56800;52.142;5.364;2023-04-03T00:33:52;4.70;65.50
69595;DHT22;56800;52.142;5.364;2023-04-03T00:36:18;4.60;65.50
69595;DHT22;56800;52.142;5.364;2023-04-03T00:38:45;4.60;65.50
69595;DHT22;56800;52.142;5.364;2023-04-03T00:41:12;4.60;65.60
69595;DHT22;56800;52.142;5.364;2023-04-03T00:43:39;4.60;65.70
69595;DHT22;56800;52.142;5.364;2023-04-03T00:46:06;4.60;65.70
69595;DHT22;56800;52.142;5.364;2023-04-03T00:48:39;4.50;65.70
69595;DHT22;56800;52.142;5.364;2023-04-03T00:51:10;4.50;65.70
69595;DHT22;56800;52.142;5.364;2023-04-03T00:53:59;4.50;65.80
69595;DHT22;56800;52.142;5.364;2023-04-03T00:56:28;4.50;65.80
69595;DHT22;56800;52.142;5.364;2023-04-03T00:59:02;4.40;65.80
69595;DHT22;56800;52.142;5.364;2023-04-03T01:01:30;4.40;65.80
69595;DHT22;56800;52.142;5.364;2023-04-03T01:04:01;4.40;65.90
69595;DHT22;56800;52.142;5.364;2023-04-03T01:06:33;4.40;66.00
69595;DHT22;56800;52.142;5.364;2023-04-03T01:09:01;4.40;66.00
69595;DHT22;56800;52.142;5.364;2023-04-03T01:11:28;4.40;66.10
69595;DHT22;56800;52.142;5.364;2023-04-03T01:13:55;4.30;66.80
69595;DHT22;56800;52.142;5.364;2023-04-03T01:16:21;4.30;66.20
69595;DHT22;56800;52.142;5.364;2023-04-03T01:18:48;4.30;66.30
69595;DHT22;56800;52.142;5.364;2023-04-03T01:21:24;4.30;66.30
69595;DHT22;56800;52.142;5.364;2023-04-03T01:24:20;4.30;66.30
69595;DHT22;56800;52.142;5.364;2023-04-03T01:26:48;4.30;66.40
69595;DHT22;56800;52.142;5.364;2023-04-03T01:29:15;4.30;66.40
69595;DHT22;56800;52.142;5.364;2023-04-03T01:31:46;4.20;66.50
69595;DHT22;56800;52.142;5.364;2023-04-03T01:34:13;4.20;66.50
69595;DHT22;56800;52.142;5.364;2023-04-03T01:36:40;4.20;66.70
69595;DHT22;56800;52.142;5.364;2023-04-03T01:39:07;4.10;66.70
69595;DHT22;56800;52.142;5.364;2023-04-03T01:41:34;4.10;66.80
69595;DHT22;56800;52.142;5.364;2023-04-03T01:44:01;4.10;67.70
69595;DHT22;56800;52.142;5.364;2023-04-03T01:46:27;4.10;67.10
69595;DHT22;56800;52.142;5.364;2023-04-03T01:48:54;4.10;67.20
69595;DHT22;56800;52.142;5.364;2023-04-03T01:51:21;4.00;67.30
69595;DHT22;56800;52.142;5.364;2023-04-03T01:53:47;4.00;67.30
69595;DHT22;56800;52.142;5.364;2023-04-03T01:56:14;3.90;67.30
69595;DHT22;56800;52.142;5.364;2023-04-03T01:58:41;3.90;67.20
69595;DHT22;56800;52.142;5.364;2023-04-03T02:01:07;3.90;67.30
69595;DHT22;56800;52.142;5.364;2023-04-03T02:03:34;3.90;67.50
69595;DHT22;56800;52.142;5.364;2023-04-03T02:06:01;3.90;67.60
69595;DHT22;56800;52.142;5.364;2023-04-03T02:08:27;3.90;67.70
69595;DHT22;56800;52.142;5.364;2023-04-03T02:10:54;3.90;67.70
69595;DHT22;56800;52.142;5.364;2023-04-03T02:13:21;3.90;67.80
69595;DHT22;56800;52.142;5.364;2023-04-03T02:15:48;3.90;67.80
69595;DHT22;56800;52.142;5.364;2023-04-03T02:18:15;3.80;67.80
69595;DHT22;56800;52.142;5.364;2023-04-03T02:20:42;3.80;67.90
69595;DHT22;56800;52.142;5.364;2023-04-03T02:23:08;3.80;68.00
69595;DHT22;56800;52.142;5.364;2023-04-03T02:25:35;3.70;68.10
69595;DHT22;56800;52.142;5.364;2023-04-03T02:28:05;3.70;68.20
69595;DHT22;56800;52.142;5.364;2023-04-03T02:30:31;3.70;68.30
69595;DHT22;56800;52.142;5.364;2023-04-03T02:32:58;3.60;68.40
69595;DHT22;56800;52.142;5.364;2023-04-03T02:35:25;3.60;68.50
69595;DHT22;56800;52.142;5.364;2023-04-03T02:37:52;3.60;68.70
69595;DHT22;56800;52.142;5.364;2023-04-03T02:40:19;3.50;68.70
69595;DHT22;56800;52.142;5.364;2023-04-03T02:42:45;3.50;68.80
69595;DHT22;56800;52.142;5.364;2023-04-03T02:45:12;3.50;68.90
69595;DHT22;56800;52.142;5.364;2023-04-03T02:47:39;3.40;68.90
69595;DHT22;56800;52.142;5.364;2023-04-03T02:50:05;3.40;69.10
69595;DHT22;56800;52.142;5.364;2023-04-03T02:52:32;3.40;69.10
69595;DHT22;56800;52.142;5.364;2023-04-03T02:54:59;3.30;69.10
69595;DHT22;56800;52.142;5.364;2023-04-03T02:57:25;3.30;69.20
69595;DHT22;56800;52.142;5.364;2023-04-03T02:59:52;3.30;69.30
69595;DHT22;56800;52.142;5.364;2023-04-03T03:02:19;3.30;69.30
69595;DHT22;56800;52.142;5.364;2023-04-03T03:04:46;3.30;69.40
69595;DHT22;56800;52.142;5.364;2023-04-03T03:07:12;3.20;69.50
69595;DHT22;56800;52.142;5.364;2023-04-03T03:09:39;3.20;69.60
69595;DHT22;56800;52.142;5.364;2023-04-03T03:12:06;3.20;69.70
69595;DHT22;56800;52.142;5.364;2023-04-03T03:14:33;3.20;69.80
69595;DHT22;56800;52.142;5.364;2023-04-03T03:16:59;3.20;69.80
69595;DHT22;56800;52.142;5.364;2023-04-03T03:19:26;3.20;69.90
69595;DHT22;56800;52.142;5.364;2023-04-03T03:21:53;3.10;69.90
69595;DHT22;56800;52.142;5.364;2023-04-03T03:24:19;3.10;69.90
69595;DHT22;56800;52.142;5.364;2023-04-03T03:26:46;3.10;70.00
69595;DHT22;56800;52.142;5.364;2023-04-03T03:29:13;3.10;70.10
69595;DHT22;56800;52.142;5.364;2023-04-03T03:31:39;3.00;70.20
69595;DHT22;56800;52.142;5.364;2023-04-03T03:34:06;3.00;70.30
69595;DHT22;56800;52.142;5.364;2023-04-03T03:36:33;3.00;70.40
69595;DHT22;56800;52.142;5.364;2023-04-03T03:38:59;3.00;71.20
69595;DHT22;56800;52.142;5.364;2023-04-03T03:41:26;3.00;70.50
69595;DHT22;56800;52.142;5.364;2023-04-03T03:43:53;2.90;70.50
69595;DHT22;56800;52.142;5.364;2023-04-03T03:46:19;2.90;70.60
69595;DHT22;56800;52.142;5.364;2023-04-03T03:48:46;2.90;70.70
69595;DHT22;56800;52.142;5.364;2023-04-03T03:51:13;2.90;70.80
69595;DHT22;56800;52.142;5.364;2023-04-03T03:53:40;2.90;70.90
69595;DHT22;56800;52.142;5.364;2023-04-03T03:56:07;2.90;71.00
69595;DHT22;56800;52.142;5.364;2023-04-03T03:58:33;2.90;71.10
69595;DHT22;56800;52.142;5.364;2023-04-03T04:01:04;2.90;71.10
69595;DHT22;56800;52.142;5.364;2023-04-03T04:03:32;2.80;71.20
69595;DHT22;56800;52.142;5.364;2023-04-03T04:06:00;2.80;71.20
69595;DHT22;56800;52.142;5.364;2023-04-03T04:08:26;2.80;71.20
69595;DHT22;56800;52.142;5.364;2023-04-03T04:10:53;2.80;71.20
69595;DHT22;56800;52.142;5.364;2023-04-03T04:13:20;2.80;72.00
69595;DHT22;56800;52.142;5.364;2023-04-03T04:15:47;2.80;71.30
69595;DHT22;56800;52.142;5.364;2023-04-03T04:18:13;2.80;71.30
69595;DHT22;56800;52.142;5.364;2023-04-03T04:20:40;2.80;71.40
69595;DHT22;56800;52.142;5.364;2023-04-03T04:23:07;2.80;71.40
69595;DHT22;56800;52.142;5.364;2023-04-03T04:25:33;2.80;71.40
69595;DHT22;56800;52.142;5.364;2023-04-03T04:28:00;2.80;71.50
69595;DHT22;56800;52.142;5.364;2023-04-03T04:30:27;2.80;71.50
69595;DHT22;56800;52.142;5.364;2023-04-03T04:32:54;2.70;71.50
69595;DHT22;56800;52.142;5.364;2023-04-03T04:35:20;2.70;71.60
69595;DHT22;56800;52.142;5.364;2023-04-03T04:37:47;2.70;71.60
69595;DHT22;56800;52.142;5.364;2023-04-03T04:40:14;2.70;71.70
69595;DHT22;56800;52.142;5.364;2023-04-03T04:42:41;2.70;71.70
69595;DHT22;56800;52.142;5.364;2023-04-03T04:45:07;2.70;71.70
69595;DHT22;56800;52.142;5.364;2023-04-03T04:47:34;2.70;71.80
69595;DHT22;56800;52.142;5.364;2023-04-03T04:50:01;2.70;71.90
69595;DHT22;56800;52.142;5.364;2023-04-03T04:52:28;2.60;71.80
69595;DHT22;56800;52.142;5.364;2023-04-03T04:54:54;2.60;71.80
69595;DHT22;56800;52.142;5.364;2023-04-03T04:57:21;2.70;71.90
69595;DHT22;56800;52.142;5.364;2023-04-03T04:59:48;2.60;72.00
69595;DHT22;56800;52.142;5.364;2023-04-03T05:02:14;2.60;72.00
69595;DHT22;56800;52.142;5.364;2023-04-03T05:04:41;2.60;72.10
69595;DHT22;56800;52.142;5.364;2023-04-03T05:07:08;2.50;72.10
69595;DHT22;56800;52.142;5.364;2023-04-03T05:09:34;2.50;72.10
69595;DHT22;56800;52.142;5.364;2023-04-03T05:12:01;2.50;72.20
69595;DHT22;56800;52.142;5.364;2023-04-03T05:14:29;2.50;72.20
69595;DHT22;56800;52.142;5.364;2023-04-03T05:16:56;2.60;72.30
69595;DHT22;56800;52.142;5.364;2023-04-03T05:19:24;2.50;73.10
69595;DHT22;56800;52.142;5.364;2023-04-03T05:21:50;2.50;72.40
69595;DHT22;56800;52.142;5.364;2023-04-03T05:24:17;2.50;72.50
69595;DHT22;56800;52.142;5.364;2023-04-03T05:26:44;2.50;72.60
69595;DHT22;56800;52.142;5.364;2023-04-03T05:29:10;2.50;72.70
69595;DHT22;56800;52.142;5.364;2023-04-03T05:31:37;2.50;72.70
69595;DHT22;56800;52.142;5.364;2023-04-03T05:34:04;2.50;72.70
69595;DHT22;56800;52.142;5.364;2023-04-03T05:36:31;2.50;72.70
69595;DHT22;56800;52.142;5.364;2023-04-03T05:38:57;2.50;72.90
69595;DHT22;56800;52.142;5.364;2023-04-03T05:41:24;2.50;72.80
69595;DHT22;56800;52.142;5.364;2023-04-03T05:43:51;2.50;72.80
69595;DHT22;56800;52.142;5.364;2023-04-03T05:46:19;2.50;72.80
69595;DHT22;56800;52.142;5.364;2023-04-03T05:48:47;2.50;72.80
69595;DHT22;56800;52.142;5.364;2023-04-03T05:51:19;2.50;72.80
69595;DHT22;56800;52.142;5.364;2023-04-03T05:53:46;2.50;73.60
69595;DHT22;56800;52.142;5.364;2023-04-03T05:56:14;2.50;72.90
69595;DHT22;56800;52.142;5.364;2023-04-03T05:58:41;2.60;72.90
69595;DHT22;56800;52.142;5.364;2023-04-03T06:01:07;2.60;72.80
69595;DHT22;56800;52.142;5.364;2023-04-03T06:03:34;2.60;72.80
69595;DHT22;56800;52.142;5.364;2023-04-03T06:06:04;2.70;73.70
69595;DHT22;56800;52.142;5.364;2023-04-03T06:08:31;2.70;72.90
69595;DHT22;56800;52.142;5.364;2023-04-03T06:10:58;2.80;73.10
69595;DHT22;56800;52.142;5.364;2023-04-03T06:13:24;2.80;73.00
69595;DHT22;56800;52.142;5.364;2023-04-03T06:15:51;2.80;72.80
69595;DHT22;56800;52.142;5.364;2023-04-03T06:18:18;2.90;72.80
69595;DHT22;56800;52.142;5.364;2023-04-03T06:20:45;2.90;72.80
69595;DHT22;56800;52.142;5.364;2023-04-03T06:23:12;2.90;72.70
69595;DHT22;56800;52.142;5.364;2023-04-03T06:25:39;2.90;72.70
69595;DHT22;56800;52.142;5.364;2023-04-03T06:28:06;2.90;72.70
69595;DHT22;56800;52.142;5.364;2023-04-03T06:30:36;3.00;72.70
69595;DHT22;56800;52.142;5.364;2023-04-03T06:33:03;3.00;72.60
69595;DHT22;56800;52.142;5.364;2023-04-03T06:35:30;3.00;72.60
69595;DHT22;56800;52.142;5.364;2023-04-03T06:37:57;3.10;72.50
69595;DHT22;56800;52.142;5.364;2023-04-03T06:40:25;3.10;72.50
69595;DHT22;56800;52.142;5.364;2023-04-03T06:42:52;3.20;72.80
69595;DHT22;56800;52.142;5.364;2023-04-03T06:45:19;3.30;73.00
69595;DHT22;56800;52.142;5.364;2023-04-03T06:47:46;3.50;72.80
69595;DHT22;56800;52.142;5.364;2023-04-03T06:50:13;3.60;72.20
69595;DHT22;56800;52.142;5.364;2023-04-03T06:52:41;3.70;71.90
69595;DHT22;56800;52.142;5.364;2023-04-03T06:55:08;3.70;71.80
69595;DHT22;56800;52.142;5.364;2023-04-03T06:57:36;3.80;72.00
69595;DHT22;56800;52.142;5.364;2023-04-03T07:00:05;3.90;71.90
69595;DHT22;56800;52.142;5.364;2023-04-03T07:02:32;4.00;71.50
69595;DHT22;56800;52.142;5.364;2023-04-03T07:04:59;4.10;71.40
69595;DHT22;56800;52.142;5.364;2023-04-03T07:07:26;4.10;71.10
69595;DHT22;56800;52.142;5.364;2023-04-03T07:09:53;4.20;71.30
69595;DHT22;56800;52.142;5.364;2023-04-03T07:12:20;4.20;71.00
69595;DHT22;56800;52.142;5.364;2023-04-03T07:14:47;4.30;70.80
69595;DHT22;56800;52.142;5.364;2023-04-03T07:17:13;4.40;70.70
69595;DHT22;56800;52.142;5.364;2023-04-03T07:19:40;4.40;70.30
69595;DHT22;56800;52.142;5.364;2023-04-03T07:22:07;4.40;70.30
69595;DHT22;56800;52.142;5.364;2023-04-03T07:24:34;4.50;70.70
69595;DHT22;56800;52.142;5.364;2023-04-03T07:27:01;4.70;70.80
69595;DHT22;56800;52.142;5.364;2023-04-03T07:29:28;4.90;70.80
69595;DHT22;56800;52.142;5.364;2023-04-03T07:31:56;5.30;70.80
69595;DHT22;56800;52.142;5.364;2023-04-03T07:34:23;5.80;69.80
69595;DHT22;56800;52.142;5.364;2023-04-03T07:36:50;6.30;68.40
69595;DHT22;56800;52.142;5.364;2023-04-03T07:39:16;6.50;67.80
69595;DHT22;56800;52.142;5.364;2023-04-03T07:41:43;6.70;67.30
69595;DHT22;56800;52.142;5.364;2023-04-03T07:44:10;6.70;66.70
69595;DHT22;56800;52.142;5.364;2023-04-03T07:46:37;6.80;66.40
69595;DHT22;56800;52.142;5.364;2023-04-03T07:49:04;7.00;65.70
69595;DHT22;56800;52.142;5.364;2023-04-03T07:51:31;7.30;64.30
69595;DHT22;56800;52.142;5.364;2023-04-03T07:53:58;7.50;63.50
69595;DHT22;56800;52.142;5.364;2023-04-03T07:56:25;7.40;63.20
69595;DHT22;56800;52.142;5.364;2023-04-03T07:58:51;7.20;63.10
69595;DHT22;56800;52.142;5.364;2023-04-03T08:01:18;7.00;63.00
69595;DHT22;56800;52.142;5.364;2023-04-03T08:03:44;6.90;63.70
69595;DHT22;56800;52.142;5.364;2023-04-03T08:06:12;6.90;63.90
69595;DHT22;56800;52.142;5.364;2023-04-03T08:08:42;6.70;63.60
69595;DHT22;56800;52.142;5.364;2023-04-03T08:11:10;6.60;63.40
69595;DHT22;56800;52.142;5.364;2023-04-03T08:13:36;6.60;63.60
69595;DHT22;56800;52.142;5.364;2023-04-03T08:16:11;6.70;64.00
69595;DHT22;56800;52.142;5.364;2023-04-03T08:18:38;6.90;64.40
69595;DHT22;56800;52.142;5.364;2023-04-03T08:21:06;7.20;63.30
69595;DHT22;56800;52.142;5.364;2023-04-03T08:23:33;7.30;63.00
69595;DHT22;56800;52.142;5.364;2023-04-03T08:26:16;7.50;62.60
69595;DHT22;56800;52.142;5.364;2023-04-03T08:28:43;7.50;61.10
69595;DHT22;56800;52.142;5.364;2023-04-03T08:31:12;7.70;61.70
69595;DHT22;56800;52.142;5.364;2023-04-03T08:33:39;8.00;61.10
69595;DHT22;56800;52.142;5.364;2023-04-03T08:36:07;8.30;60.80
69595;DHT22;56800;52.142;5.364;2023-04-03T08:38:41;8.40;59.40
69595;DHT22;56800;52.142;5.364;2023-04-03T08:41:28;8.60;59.40
69595;DHT22;56800;52.142;5.364;2023-04-03T08:44:13;9.10;58.90
69595;DHT22;56800;52.142;5.364;2023-04-03T08:47:33;9.70;58.20
69595;DHT22;56800;52.142;5.364;2023-04-03T08:50:06;10.40;56.40
69595;DHT22;56800;52.142;5.364;2023-04-03T08:52:39;11.00;55.80
69595;DHT22;56800;52.142;5.364;2023-04-03T08:55:28;11.70;54.20
69595;DHT22;56800;52.142;5.364;2023-04-03T08:58:12;12.20;51.90
69595;DHT22;56800;52.142;5.364;2023-04-03T09:00:53;12.40;50.30
69595;DHT22;56800;52.142;5.364;2023-04-03T09:03:22;12.70;49.20
69595;DHT22;56800;52.142;5.364;2023-04-03T09:06:21;13.10;50.10
69595;DHT22;56800;52.142;5.364;2023-04-03T09:16:31;14.40;46.20
69595;DHT22;56800;52.142;5.364;2023-04-03T09:21:42;15.20;42.20
69595;DHT22;56800;52.142;5.364;2023-04-03T09:24:12;15.20;41.60
69595;DHT22;56800;52.142;5.364;2023-04-03T09:29:17;14.80;38.90
69595;DHT22;56800;52.142;5.364;2023-04-03T09:31:46;14.80;38.90
69595;DHT22;56800;52.142;5.364;2023-04-03T09:34:26;14.80;38.10
69595;DHT22;56800;52.142;5.364;2023-04-03T09:36:59;14.90;38.10
69595;DHT22;56800;52.142;5.364;2023-04-03T09:39:28;15.20;38.60
69595;DHT22;56800;52.142;5.364;2023-04-03T09:42:03;15.80;38.60
69595;DHT22;56800;52.142;5.364;2023-04-03T09:44:36;16.00;37.40
69595;DHT22;56800;52.142;5.364;2023-04-03T09:49:45;16.10;35.90
69595;DHT22;56800;52.142;5.364;2023-04-03T09:52:26;16.30;35.60
69595;DHT22;56800;52.142;5.364;2023-04-03T09:54:53;16.30;34.20
69595;DHT22;56800;52.142;5.364;2023-04-03T09:57:19;16.30;34.00
69595;DHT22;56800;52.142;5.364;2023-04-03T10:00:00;16.30;33.60
69595;DHT22;56800;52.142;5.364;2023-04-03T10:02:40;16.40;33.70
69595;DHT22;56800;52.142;5.364;2023-04-03T10:05:47;17.00;34.60
69595;DHT22;56800;52.142;5.364;2023-04-03T10:10:42;17.70;32.50
69595;DHT22;56800;52.142;5.364;2023-04-03T10:13:17;17.80;32.20
69595;DHT22;56800;52.142;5.364;2023-04-03T10:15:51;17.90;31.90
69595;DHT22;56800;52.142;5.364;2023-04-03T10:19:37;17.80;31.30
69595;DHT22;56800;52.142;5.364;2023-04-03T10:29:55;17.50;30.30
69595;DHT22;56800;52.142;5.364;2023-04-03T10:38:00;17.60;30.10
69595;DHT22;56800;52.142;5.364;2023-04-03T10:46:27;17.50;29.50
69595;DHT22;56800;52.142;5.364;2023-04-03T10:49:08;17.30;29.70
69595;DHT22;56800;52.142;5.364;2023-04-03T10:54:50;17.00;29.60
69595;DHT22;56800;52.142;5.364;2023-04-03T10:57:19;17.00;30.20
69595;DHT22;56800;52.142;5.364;2023-04-03T11:02:37;16.70;29.00
69595;DHT22;56800;52.142;5.364;2023-04-03T11:05:13;16.40;28.70
69595;DHT22;56800;52.142;5.364;2023-04-03T11:07:51;16.00;28.40
69595;DHT22;56800;52.142;5.364;2023-04-03T11:10:25;15.70;28.70
69595;DHT22;56800;52.142;5.364;2023-04-03T11:13:26;15.50;29.00
69595;DHT22;56800;52.142;5.364;2023-04-03T11:15:55;15.40;29.20
69595;DHT22;56800;52.142;5.364;2023-04-03T11:18:28;15.40;29.40
69595;DHT22;56800;52.142;5.364;2023-04-03T11:21:16;15.20;29.60
69595;DHT22;56800;52.142;5.364;2023-04-03T11:23:45;15.10;29.80
69595;DHT22;56800;52.142;5.364;2023-04-03T11:26:18;15.00;29.80
69595;DHT22;56800;52.142;5.364;2023-04-03T11:28:45;14.90;30.00
69595;DHT22;56800;52.142;5.364;2023-04-03T11:31:33;14.90;30.40
69595;DHT22;56800;52.142;5.364;2023-04-03T11:36:48;14.80;30.50
69595;DHT22;56800;52.142;5.364;2023-04-03T11:39:24;14.80;31.00
69595;DHT22;56800;52.142;5.364;2023-04-03T11:41:52;14.90;31.00
69595;DHT22;56800;52.142;5.364;2023-04-03T11:44:38;14.90;30.90
69595;DHT22;56800;52.142;5.364;2023-04-03T11:47:06;14.90;31.40
69595;DHT22;56800;52.142;5.364;2023-04-03T11:49:56;14.80;30.00
69595;DHT22;56800;52.142;5.364;2023-04-03T12:16:30;15.20;30.70
69595;DHT22;56800;52.142;5.364;2023-04-03T12:19:03;15.30;30.60
69595;DHT22;56800;52.142;5.364;2023-04-03T12:29:54;15.50;30.40
69595;DHT22;56800;52.142;5.364;2023-04-03T12:46:39;15.10;30.00
69595;DHT22;56800;52.142;5.364;2023-04-03T12:51:55;15.10;30.10
69595;DHT22;56800;52.142;5.364;2023-04-03T12:54:38;15.10;30.80
69595;DHT22;56800;52.142;5.364;2023-04-03T12:59:43;15.20;30.80
69595;DHT22;56800;52.142;5.364;2023-04-03T13:04:56;15.30;31.20
69595;DHT22;56800;52.142;5.364;2023-04-03T13:09:56;15.50;31.00
69595;DHT22;56800;52.142;5.364;2023-04-03T13:12:23;15.50;30.40
69595;DHT22;56800;52.142;5.364;2023-04-03T13:14:58;15.50;30.70
69595;DHT22;56800;52.142;5.364;2023-04-03T13:17:25;15.60;30.80
69595;DHT22;56800;52.142;5.364;2023-04-03T13:19:54;15.80;30.80
69595;DHT22;56800;52.142;5.364;2023-04-03T13:22:33;15.90;30.80
69595;DHT22;56800;52.142;5.364;2023-04-03T13:25:07;16.00;30.50
69595;DHT22;56800;52.142;5.364;2023-04-03T13:27:36;16.00;30.20
69595;DHT22;56800;52.142;5.364;2023-04-03T13:30:06;16.00;30.80
69595;DHT22;56800;52.142;5.364;2023-04-03T13:32:33;16.00;29.80
69595;DHT22;56800;52.142;5.364;2023-04-03T13:35:00;15.90;29.90
69595;DHT22;56800;52.142;5.364;2023-04-03T13:37:54;15.90;31.00
69595;DHT22;56800;52.142;5.364;2023-04-03T13:40:21;15.90;30.20
69595;DHT22;56800;52.142;5.364;2023-04-03T13:43:06;16.00;30.70
69595;DHT22;56800;52.142;5.364;2023-04-03T13:45:34;16.30;30.60
69595;DHT22;56800;52.142;5.364;2023-04-03T13:48:17;16.30;30.40
69595;DHT22;56800;52.142;5.364;2023-04-03T13:51:02;16.40;30.00
69595;DHT22;56800;52.142;5.364;2023-04-03T13:53:31;16.40;29.90
69595;DHT22;56800;52.142;5.364;2023-04-03T13:56:08;16.40;30.20
69595;DHT22;56800;52.142;5.364;2023-04-03T13:58:36;16.40;30.30
69595;DHT22;56800;52.142;5.364;2023-04-03T14:01:20;16.50;30.90
69595;DHT22;56800;52.142;5.364;2023-04-03T14:03:59;16.60;30.50
69595;DHT22;56800;52.142;5.364;2023-04-03T14:06:26;16.70;30.00
69595;DHT22;56800;52.142;5.364;2023-04-03T14:08:53;16.50;29.40
69595;DHT22;56800;52.142;5.364;2023-04-03T14:11:22;16.30;29.20
69595;DHT22;56800;52.142;5.364;2023-04-03T14:13:50;16.20;29.40
69595;DHT22;56800;52.142;5.364;2023-04-03T14:16:23;16.10;29.70
69595;DHT22;56800;52.142;5.364;2023-04-03T14:18:52;16.10;30.00
69595;DHT22;56800;52.142;5.364;2023-04-03T14:21:20;16.10;30.00
69595;DHT22;56800;52.142;5.364;2023-04-03T14:23:48;16.10;29.90
69595;DHT22;56800;52.142;5.364;2023-04-03T14:26:20;16.00;29.80
69595;DHT22;56800;52.142;5.364;2023-04-03T14:28:50;16.00;29.90
69595;DHT22;56800;52.142;5.364;2023-04-03T14:31:18;15.90;29.90
69595;DHT22;56800;52.142;5.364;2023-04-03T14:33:46;15.80;30.40
69595;DHT22;56800;52.142;5.364;2023-04-03T14:36:20;15.80;30.70
69595;DHT22;56800;52.142;5.364;2023-04-03T14:38:49;15.80;30.60
69595;DHT22;56800;52.142;5.364;2023-04-03T14:41:18;15.70;30.60
69595;DHT22;56800;52.142;5.364;2023-04-03T14:43:46;15.70;31.10
69595;DHT22;56800;52.142;5.364;2023-04-03T14:46:19;15.60;30.90
69595;DHT22;56800;52.142;5.364;2023-04-03T14:48:48;15.60;31.20
69595;DHT22;56800;52.142;5.364;2023-04-03T14:51:15;15.60;31.40
69595;DHT22;56800;52.142;5.364;2023-04-03T14:53:44;15.60;31.50
69595;DHT22;56800;52.142;5.364;2023-04-03T14:56:16;15.60;30.60
69595;DHT22;56800;52.142;5.364;2023-04-03T14:58:44;15.50;30.90
69595;DHT22;56800;52.142;5.364;2023-04-03T15:01:11;15.50;30.90
69595;DHT22;56800;52.142;5.364;2023-04-03T15:03:40;15.50;30.40
69595;DHT22;56800;52.142;5.364;2023-04-03T15:06:10;15.40;30.60
69595;DHT22;56800;52.142;5.364;2023-04-03T15:08:38;15.40;31.00
69595;DHT22;56800;52.142;5.364;2023-04-03T15:11:04;15.30;31.20
69595;DHT22;56800;52.142;5.364;2023-04-03T15:13:31;15.40;31.90
69595;DHT22;56800;52.142;5.364;2023-04-03T15:15:58;15.40;32.20
69595;DHT22;56800;52.142;5.364;2023-04-03T15:18:32;15.40;31.70
69595;DHT22;56800;52.142;5.364;2023-04-03T15:21:00;15.30;31.90
69595;DHT22;56800;52.142;5.364;2023-04-03T15:23:27;15.20;31.70
69595;DHT22;56800;52.142;5.364;2023-04-03T15:25:55;15.10;31.70
69595;DHT22;56800;52.142;5.364;2023-04-03T15:30:55;14.90;31.60
69595;DHT22;56800;52.142;5.364;2023-04-03T15:33:22;14.80;31.70
69595;DHT22;56800;52.142;5.364;2023-04-03T15:35:49;14.70;31.70
69595;DHT22;56800;52.142;5.364;2023-04-03T15:38:16;14.70;32.10
69595;DHT22;56800;52.142;5.364;2023-04-03T15:40:42;14.60;32.00
69595;DHT22;56800;52.142;5.364;2023-04-03T15:43:10;14.50;32.20
69595;DHT22;56800;52.142;5.364;2023-04-03T15:45:37;14.50;32.20
69595;DHT22;56800;52.142;5.364;2023-04-03T15:48:05;14.30;32.40
69595;DHT22;56800;52.142;5.364;2023-04-03T15:50:33;14.20;32.60
69595;DHT22;56800;52.142;5.364;2023-04-03T15:53:00;14.20;33.00
69595;DHT22;56800;52.142;5.364;2023-04-03T15:55:30;14.10;33.10
69595;DHT22;56800;52.142;5.364;2023-04-03T15:57:57;14.10;33.00
69595;DHT22;56800;52.142;5.364;2023-04-03T16:00:24;14.00;33.10
69595;DHT22;56800;52.142;5.364;2023-04-03T16:02:55;13.90;33.10
69595;DHT22;56800;52.142;5.364;2023-04-03T16:05:24;13.80;33.60
69595;DHT22;56800;52.142;5.364;2023-04-03T16:07:51;13.70;33.80
69595;DHT22;56800;52.142;5.364;2023-04-03T16:10:18;13.60;33.80
69595;DHT22;56800;52.142;5.364;2023-04-03T16:12:45;13.50;34.10
69595;DHT22;56800;52.142;5.364;2023-04-03T16:15:12;13.50;34.10
69595;DHT22;56800;52.142;5.364;2023-04-03T16:17:40;13.40;34.70
69595;DHT22;56800;52.142;5.364;2023-04-03T16:20:11;13.30;34.60
69595;DHT22;56800;52.142;5.364;2023-04-03T16:22:39;13.30;35.20
69595;DHT22;56800;52.142;5.364;2023-04-03T16:25:08;13.20;35.60
69595;DHT22;56800;52.142;5.364;2023-04-03T16:27:36;13.00;35.50
69595;DHT22;56800;52.142;5.364;2023-04-03T16:30:03;12.90;35.50
69595;DHT22;56800;52.142;5.364;2023-04-03T16:32:31;12.70;35.90
69595;DHT22;56800;52.142;5.364;2023-04-03T16:34:58;12.70;36.50
69595;DHT22;56800;52.142;5.364;2023-04-03T16:37:30;12.60;36.20
69595;DHT22;56800;52.142;5.364;2023-04-03T16:39:58;12.50;36.60
69595;DHT22;56800;52.142;5.364;2023-04-03T16:42:25;12.50;37.00
69595;DHT22;56800;52.142;5.364;2023-04-03T16:44:52;12.40;36.80
69595;DHT22;56800;52.142;5.364;2023-04-03T16:47:19;12.30;36.70
69595;DHT22;56800;52.142;5.364;2023-04-03T16:49:46;12.30;36.90
69595;DHT22;56800;52.142;5.364;2023-04-03T16:52:13;12.20;37.10
69595;DHT22;56800;52.142;5.364;2023-04-03T16:54:40;12.20;37.50
69595;DHT22;56800;52.142;5.364;2023-04-03T16:57:07;12.10;37.30
69595;DHT22;56800;52.142;5.364;2023-04-03T16:59:34;12.00;37.20
69595;DHT22;56800;52.142;5.364;2023-04-03T17:02:01;11.80;37.30
69595;DHT22;56800;52.142;5.364;2023-04-03T17:04:27;11.70;37.60
69595;DHT22;56800;52.142;5.364;2023-04-03T17:06:54;11.60;37.90
69595;DHT22;56800;52.142;5.364;2023-04-03T17:09:21;11.50;38.20
69595;DHT22;56800;52.142;5.364;2023-04-03T17:11:49;11.50;38.30
69595;DHT22;56800;52.142;5.364;2023-04-03T17:14:15;11.40;38.40
69595;DHT22;56800;52.142;5.364;2023-04-03T17:16:42;11.30;38.20
69595;DHT22;56800;52.142;5.364;2023-04-03T17:19:09;11.20;38.20
69595;DHT22;56800;52.142;5.364;2023-04-03T17:21:38;11.10;38.40
69595;DHT22;56800;52.142;5.364;2023-04-03T17:24:06;11.00;38.60
69595;DHT22;56800;52.142;5.364;2023-04-03T17:26:35;10.90;39.20
69595;DHT22;56800;52.142;5.364;2023-04-03T17:29:03;10.80;39.40
69595;DHT22;56800;52.142;5.364;2023-04-03T17:31:30;10.70;39.40
69595;DHT22;56800;52.142;5.364;2023-04-03T17:33:57;10.60;39.40
69595;DHT22;56800;52.142;5.364;2023-04-03T17:36:31;10.50;39.80
69595;DHT22;56800;52.142;5.364;2023-04-03T17:38:59;10.40;39.70
69595;DHT22;56800;52.142;5.364;2023-04-03T17:41:25;10.30;39.70